Etusivu
METAR-TAF:

METAR-TAF

Lentoasemat :

Hydaburg, Alaska, Yhdysvallat

Leveyspiiri: 55-12N, Pituuspiiri: 132-50W, korkeus merenpinnasta: 0 m

Tämänhetkinen sää

Tämä raportti tehtiin 33 minuuttia sitten, kello 20.56 UTC
Tuuli 25 kn idästä/kaakosta puuskistuen 38 kn:hen
Lämpötila 8°C
Kosteus 76%
Ilmanpaine 983 hPa
Näkyvyys: 16.1 km
Hajonneita pilviä 2500 ft:n korkeudessa
Pilvistä 3100 ft:n korkeudessa
heikkoa sadetta

METAR: PAHY 182056Z AUTO 11025G38KT 10SM -RA BKN025 OVC031 08/04 A2902 RMK AO2 PK WND 11038/2050 RAB10 SLP924 P0000 60002 T00830044 52014 $

Aika: 12:29 (21:29 UTC)


TAF: puuttuu

Säähavainnot ja -ennusteet yli 4000 lentoasemalta (METAR- ja TAF-raportit).

Käytössä olevat sääasemat on merkitty karttaan keltaisilla ja punaisilla pisteillä.

Aseta hiiri pisteen päälle nähdäksesi sääaseman nimen.

Klikkaa sitten nähdäksesi säähavainnot ja -ennusteet.

Kartan vaihtaminen: klikkaa mustalla rastilla varustettuja vihreitä pisteitä, niin voit zoomata sisään; viivalla varustettua vihreää pistettä, niin voit zoomata ulos tai vihreitä nuolia, niin pääset viereisille kartoille.


METAR-TAF: